HTDA/DAR METAR and TAF weather

Enter ICAO airport designator
Station Type Date Time Source
HTDA METAR 2020/10/29 17:00 UTC NOAA

HTDA 291700Z 12005KT 9999 FEW012 25/23 Q1014 NOSIG


Station Type Date Time Source
HTDA Decoded METAR 2020/10/29 17:00 UTC NOAA

Dar Es Salaam Airport, Tanzania (HTDA) 06-52S 039-12E 55M
Oct 29, 2020 - 01:00 PM EDT / 2020.10.29 1700 UTC
Wind: from the ESE (120 degrees) at 6 MPH (5 KT):0
Visibility: greater than 7 mile(s):0
Sky conditions: mostly clear
Temperature: 77 F (25 C)
Dew Point: 73 F (23 C)
Relative Humidity: 88%
Pressure (altimeter): 29.94 in. Hg (1014 hPa)
ob: HTDA 291700Z 12005KT 9999 FEW012 25/23 Q1014 NOSIG
cycle: 17

Station Type Date Time Source
HTDA TAF 2020/10/29 18:18 UTC NOAA

TAF TAF HTDA 291700Z 2918/3024 15005KT 9999 BKN012
TEMPO 3006/3012 SHRA FEW022CB
BECMG 3013/3016 16015KT SCT012

Example: see airport list